Imlay, NV (89418)

5:16 PM PST on February 13, 2016 (GMT -0800)
Winnemucca Municipal | | Change Station
CLOSE
Current Station
Airport
Location: Winnemucca,
Elevation: 4311 ft
Nearby Weather Stations

Elev 4311 ft 40.90 °N, 117.81 °W | Updated 20 minutes ago

Clear
Clear
52 °F
Feels Like 52 °F
N
7
Wind Variable Wind from WNW

Today
High -- | Low -- °F
--% Chance of Precip.
Yesterday
High -- | Low -- °F
Precip. -- in
Pressure 30.28 in
Visibility 10.0 miles
Clouds Clear
Dew Point 21 °F
Humidity 30%
Rainfall 0.00 in
Snow Depth Not available.
6:48 AM 5:24 PM
Waxing Crescent, 36% visible
METAR KWMC 140056Z AUTO 29006KT 10SM CLR 11/M06 A3027 RMK AO2 SLP254 T01111061 $
Pressure 30.28 in
Visibility 10.0 miles
Clouds Clear
Dew Point 21 °F
Humidity 30%
Rainfall 0.00 in
Snow Depth Not available.
6:48 AM 5:24 PM
Waxing Crescent, 36% visible
METAR KWMC 140056Z AUTO 29006KT 10SM CLR 11/M06 A3027 RMK AO2 SLP254 T01111061 $

10-Day Weather Forecast

Almanac

Astronomy

Feb. 13, 2016 Rise Set
Actual Time
Civil Twilight
Nautical Twilight
Astronomical Twilight
Moon
Length of Visible Light
Length of Day
Tomorrow will be .
, % of the Moon is Illuminated

Today's Extremes

State Highs State Lows

Community

WunderPhotos

Upload Photos

1,892,723 photos uploaded!

WunderBlog® & News

Nearby

Air Quality

  Air Quality AQ Index Pollutant
Not available.

Snow Depth

Station Depth Elevation

Earthquake Activity

City Distance Mag. Time & Date
Minimum magnitude displayed is 2.5.

Coastal Water Temperatures

Place Temperature

Stations

Nearby Weather Stations

Station Location Temp. Windchill Dew Point Humidity Wind Precip. Elev Updated Type
                   

Watches & Warnings

There are currently no watches in effect.